createdAt,value
2018-08-07T00:00:33.055Z,2.67
2018-08-07T00:03:04.312Z,2.60
2018-08-07T00:05:32.518Z,2.33
2018-08-07T00:08:00.523Z,2.37
2018-08-07T00:10:28.720Z,2.10
2018-08-07T00:12:56.960Z,3.00
2018-08-07T00:15:26.022Z,2.63
2018-08-07T00:17:54.250Z,2.57
2018-08-07T00:20:22.462Z,2.47
2018-08-07T00:22:50.569Z,2.70
2018-08-07T00:25:18.778Z,2.50
2018-08-07T00:27:47.022Z,3.10
2018-08-07T00:30:16.319Z,2.83
2018-08-07T00:32:44.712Z,2.40
2018-08-07T00:35:14.364Z,2.60
2018-08-07T00:37:42.767Z,2.50
2018-08-07T00:40:13.163Z,2.50
2018-08-07T00:42:41.844Z,2.57
2018-08-07T00:45:12.248Z,2.30
2018-08-07T00:47:40.733Z,2.50
2018-08-07T00:50:11.397Z,2.70
2018-08-07T00:52:39.601Z,3.03
2018-08-07T00:55:07.957Z,2.80
2018-08-07T00:57:36.404Z,2.20
2018-08-07T01:00:07.141Z,2.50
2018-08-07T01:02:35.559Z,2.50
2018-08-07T01:05:04.076Z,2.50
2018-08-07T01:07:32.328Z,2.80
2018-08-07T01:10:00.555Z,2.80
2018-08-07T01:12:28.805Z,2.73
2018-08-07T01:14:57.088Z,2.40
2018-08-07T01:17:25.310Z,2.43
2018-08-07T01:19:53.544Z,2.70
2018-08-07T01:22:21.739Z,2.33
2018-08-07T01:24:49.964Z,2.47
2018-08-07T01:27:18.190Z,2.53
2018-08-07T01:29:46.221Z,2.70
2018-08-07T01:32:14.428Z,2.80
2018-08-07T01:34:42.660Z,2.60
2018-08-07T01:37:10.887Z,2.90
2018-08-07T01:39:39.111Z,2.50
2018-08-07T01:42:07.375Z,3.00
2018-08-07T01:44:35.611Z,2.53
2018-08-07T01:47:03.821Z,2.40
2018-08-07T01:49:32.067Z,2.93
2018-08-07T01:52:00.304Z,2.50
2018-08-07T01:54:28.514Z,2.40
2018-08-07T01:56:56.730Z,2.83
2018-08-07T01:59:24.952Z,2.50
2018-08-07T02:01:53.164Z,2.73
2018-08-07T02:04:21.400Z,2.67
2018-08-07T02:06:49.603Z,2.60
2018-08-07T02:09:17.842Z,2.67
2018-08-07T02:11:46.074Z,2.80
2018-08-07T02:14:14.297Z,2.50
2018-08-07T02:16:42.540Z,2.93
2018-08-07T02:19:10.780Z,2.43
2018-08-07T02:21:38.991Z,2.80
2018-08-07T02:24:07.215Z,2.60
2018-08-07T02:26:35.443Z,3.00
2018-08-07T02:29:03.746Z,2.70
2018-08-07T02:31:31.966Z,2.67
2018-08-07T02:34:00.160Z,2.80
2018-08-07T02:36:28.385Z,2.73
2018-08-07T02:38:56.598Z,2.60
2018-08-07T02:41:24.837Z,2.70
2018-08-07T02:43:53.039Z,2.97
2018-08-07T02:46:21.253Z,2.80
2018-08-07T02:48:49.455Z,2.70
2018-08-07T02:51:17.673Z,2.63
2018-08-07T02:53:45.913Z,2.70
2018-08-07T02:56:14.136Z,2.50
2018-08-07T02:58:42.342Z,2.87
2018-08-07T03:01:10.600Z,3.20
2018-08-07T03:03:38.808Z,2.80
2018-08-07T03:06:07.036Z,2.97
2018-08-07T03:08:35.259Z,3.17
2018-08-07T03:11:03.549Z,2.90
2018-08-07T03:13:31.795Z,2.87
2018-08-07T03:16:00.035Z,2.73
2018-08-07T03:18:28.039Z,3.10
2018-08-07T03:20:56.278Z,2.83
2018-08-07T03:23:24.500Z,2.83
2018-08-07T03:25:52.724Z,2.57
2018-08-07T03:28:20.933Z,3.10
2018-08-07T03:30:49.190Z,2.63
2018-08-07T03:33:17.392Z,2.73
2018-08-07T03:35:45.621Z,2.80
2018-08-07T03:38:13.827Z,3.17
2018-08-07T03:40:42.066Z,2.93
2018-08-07T03:43:10.292Z,2.87
2018-08-07T03:45:38.551Z,3.10
2018-08-07T03:48:06.812Z,3.10
2018-08-07T03:50:35.036Z,2.77
2018-08-07T03:53:03.317Z,2.63
2018-08-07T03:55:31.552Z,3.07
2018-08-07T03:57:59.802Z,3.50
2018-08-07T04:00:28.029Z,3.10
2018-08-07T04:02:56.232Z,3.70
2018-08-07T04:05:24.468Z,3.87
2018-08-07T04:07:52.708Z,3.60
2018-08-07T04:10:20.944Z,3.30
2018-08-07T04:12:48.950Z,3.03
2018-08-07T04:15:17.996Z,3.30
2018-08-07T04:17:46.486Z,3.43
2018-08-07T04:20:16.531Z,3.00
2018-08-07T04:22:44.780Z,2.83
2018-08-07T04:25:12.996Z,3.27
2018-08-07T04:27:41.323Z,3.10
2018-08-07T04:30:12.643Z,3.40
2018-08-07T04:32:41.240Z,2.83
2018-08-07T04:35:09.709Z,3.50
2018-08-07T04:37:37.932Z,3.20
2018-08-07T04:40:07.013Z,2.67
2018-08-07T04:42:35.150Z,2.87
2018-08-07T04:45:03.416Z,3.40
2018-08-07T04:47:32.885Z,3.30
2018-08-07T04:50:01.141Z,3.20
2018-08-07T04:52:29.612Z,3.80
2018-08-07T04:54:57.827Z,3.57
2018-08-07T04:57:26.383Z,3.23
2018-08-07T04:59:54.636Z,3.00
2018-08-07T05:02:22.989Z,2.83
2018-08-07T05:04:51.467Z,2.93
2018-08-07T05:07:19.713Z,3.33
2018-08-07T05:09:47.922Z,2.97
2018-08-07T05:12:16.188Z,2.83
2018-08-07T05:14:44.407Z,3.20
2018-08-07T05:17:12.723Z,3.40
2018-08-07T05:19:40.945Z,3.30
2018-08-07T05:22:09.404Z,2.90
2018-08-07T05:24:38.507Z,3.50
2018-08-07T05:27:06.744Z,3.00
2018-08-07T05:29:34.984Z,2.80
2018-08-07T05:32:03.223Z,3.10
2018-08-07T05:34:31.456Z,2.80
2018-08-07T05:36:59.683Z,3.40
2018-08-07T05:39:28.094Z,3.10
2018-08-07T05:41:56.328Z,2.90
2018-08-07T05:44:24.541Z,3.40
2018-08-07T05:46:53.668Z,2.40
2018-08-07T05:49:22.028Z,3.43
2018-08-07T05:51:50.251Z,2.80
2018-08-07T05:54:18.461Z,2.80
2018-08-07T05:56:46.712Z,2.97
2018-08-07T05:59:14.935Z,2.90
2018-08-07T06:01:43.172Z,2.93
2018-08-07T06:04:11.165Z,2.60
2018-08-07T06:06:39.397Z,2.73
2018-08-07T06:09:08.668Z,2.60
2018-08-07T06:11:37.018Z,2.60
2018-08-07T06:14:05.275Z,2.97
2018-08-07T06:16:33.499Z,2.80
2018-08-07T06:19:01.812Z,2.90
2018-08-07T06:21:30.093Z,2.97
2018-08-07T06:23:58.292Z,2.60
2018-08-07T06:26:26.511Z,3.00
2018-08-07T06:28:54.752Z,2.37
2018-08-07T06:31:22.993Z,2.20
2018-08-07T06:33:51.220Z,2.03
2018-08-07T06:36:19.453Z,1.70
2018-08-07T06:38:47.694Z,1.90
2018-08-07T06:41:15.920Z,1.87
2018-08-07T06:43:44.145Z,1.90
2018-08-07T06:46:12.536Z,2.10
2018-08-07T06:48:40.780Z,2.00
2018-08-07T06:51:09.021Z,2.10
2018-08-07T06:53:37.257Z,1.93
2018-08-07T06:56:06.170Z,2.13
2018-08-07T06:58:34.163Z,2.10
2018-08-07T07:01:02.379Z,1.90
2018-08-07T07:03:30.648Z,2.30
2018-08-07T07:05:58.864Z,1.90
2018-08-07T07:08:27.139Z,1.77
2018-08-07T07:10:55.364Z,2.07
2018-08-07T07:13:23.616Z,1.70
2018-08-07T07:15:51.848Z,1.90
2018-08-07T07:18:20.079Z,1.90
2018-08-07T07:20:48.333Z,1.90
2018-08-07T07:23:16.602Z,1.83
2018-08-07T07:25:44.818Z,1.72
2018-08-07T07:28:13.066Z,1.75
2018-08-07T07:30:41.281Z,1.40
2018-08-07T07:33:09.503Z,1.35
2018-08-07T07:35:37.724Z,1.57
2018-08-07T07:38:06.152Z,1.70
2018-08-07T07:40:34.485Z,1.47
2018-08-07T07:43:02.705Z,1.50
2018-08-07T07:45:30.926Z,1.60
2018-08-07T07:47:59.168Z,1.70
2018-08-07T07:50:27.365Z,1.60
2018-08-07T07:52:55.656Z,1.32
2018-08-07T07:55:23.908Z,1.50
2018-08-07T07:57:51.911Z,1.42
2018-08-07T08:00:21.984Z,1.50
2018-08-07T08:02:50.462Z,1.40
2018-08-07T08:05:18.972Z,1.70
2018-08-07T08:07:47.135Z,1.45
2018-08-07T08:10:15.343Z,1.37
2018-08-07T08:12:43.592Z,1.50
2018-08-07T08:15:14.799Z,1.57
2018-08-07T08:17:43.818Z,1.47
2018-08-07T08:20:13.856Z,1.55
2018-08-07T08:22:42.280Z,1.50
2018-08-07T08:25:11.191Z,1.40
2018-08-07T08:27:39.592Z,1.55
2018-08-07T08:30:10.555Z,1.65
2018-08-07T08:32:38.720Z,1.40
2018-08-07T08:35:08.990Z,1.30
2018-08-07T08:37:37.567Z,1.42
2018-08-07T08:40:06.369Z,1.60
2018-08-07T08:42:34.581Z,1.60
2018-08-07T08:45:02.815Z,1.50
2018-08-07T08:47:31.029Z,2.02
2018-08-07T08:49:59.251Z,1.62
2018-08-07T08:52:27.465Z,1.70
2018-08-07T08:54:55.687Z,1.47
2018-08-07T08:57:23.909Z,1.60
2018-08-07T08:59:52.141Z,1.47
2018-08-07T09:02:20.364Z,1.65
2018-08-07T09:04:48.613Z,1.50
2018-08-07T09:07:16.639Z,1.50
2018-08-07T09:09:44.872Z,2.00
2018-08-07T09:12:13.112Z,1.62
2018-08-07T09:14:41.361Z,1.50
2018-08-07T09:17:09.584Z,1.70
2018-08-07T09:19:37.661Z,1.80
2018-08-07T09:22:05.956Z,1.62
2018-08-07T09:24:34.232Z,1.80
2018-08-07T09:27:02.452Z,1.87
2018-08-07T09:29:30.702Z,1.90
2018-08-07T09:31:58.996Z,1.77
2018-08-07T09:34:27.188Z,1.90
2018-08-07T09:36:55.407Z,1.92
2018-08-07T09:39:23.652Z,1.82
2018-08-07T09:41:51.857Z,1.80
2018-08-07T09:44:20.089Z,1.77
2018-08-07T09:46:48.297Z,1.87
2018-08-07T09:49:16.530Z,2.08
2018-08-07T09:51:44.783Z,1.80
2018-08-07T09:54:13.018Z,1.82
2018-08-07T09:56:41.225Z,2.22
2018-08-07T09:59:09.461Z,1.90
2018-08-07T10:01:42.945Z,1.87
2018-08-07T10:04:11.229Z,2.05
2018-08-07T10:06:39.417Z,2.70
2018-08-07T10:09:08.668Z,1.80
2018-08-07T10:11:37.200Z,2.08
2018-08-07T10:14:05.498Z,2.05
2018-08-07T10:16:33.708Z,2.00
2018-08-07T10:19:01.921Z,2.10
2018-08-07T10:21:30.156Z,2.20
2018-08-07T10:23:58.359Z,2.00
2018-08-07T10:26:26.605Z,2.92
2018-08-07T10:28:54.828Z,2.20
2018-08-07T10:31:23.081Z,2.20
2018-08-07T10:33:51.322Z,2.35
2018-08-07T10:36:19.543Z,2.10
2018-08-07T10:38:47.782Z,2.12
2018-08-07T10:41:16.068Z,2.17
2018-08-07T10:43:44.415Z,2.10
2018-08-07T10:46:12.513Z,2.20
2018-08-07T10:48:40.765Z,2.15
2018-08-07T10:51:09.032Z,2.35
2018-08-07T10:53:37.249Z,2.35
2018-08-07T10:56:05.503Z,2.17
2018-08-07T10:58:33.729Z,2.20
2018-08-07T11:01:02.012Z,2.37
2018-08-07T11:03:30.231Z,2.00
2018-08-07T11:05:58.486Z,2.27
2018-08-07T11:08:26.713Z,2.20
2018-08-07T11:10:55.897Z,2.20
2018-08-07T11:13:24.153Z,2.25
2018-08-07T11:15:52.395Z,2.15
2018-08-07T11:18:20.625Z,2.25
2018-08-07T11:20:48.859Z,1.80
2018-08-07T11:23:17.059Z,2.02
2018-08-07T11:25:45.283Z,2.50
2018-08-07T11:28:13.512Z,2.35
2018-08-07T11:30:41.755Z,1.72
2018-08-07T11:33:09.973Z,2.02
2018-08-07T11:35:38.223Z,2.10
2018-08-07T11:38:06.647Z,2.17
2018-08-07T11:40:34.888Z,2.70
2018-08-07T11:43:03.100Z,2.60
2018-08-07T11:45:31.824Z,2.00
2018-08-07T11:48:00.130Z,2.02
2018-08-07T11:50:29.591Z,2.27
2018-08-07T11:52:58.011Z,2.15
2018-08-07T11:55:26.276Z,2.10
2018-08-07T11:57:55.008Z,2.40
2018-08-07T12:00:24.424Z,2.45
2018-08-07T12:02:52.665Z,2.30
2018-08-07T12:05:20.904Z,2.08
2018-08-07T12:07:49.170Z,2.17
2018-08-07T12:10:18.514Z,2.45
2018-08-07T12:12:46.911Z,2.02
2018-08-07T12:15:17.348Z,2.40
2018-08-07T12:17:45.647Z,2.70
2018-08-07T12:20:13.855Z,2.20
2018-08-07T12:22:42.088Z,1.95
2018-08-07T12:25:11.894Z,2.35
2018-08-07T12:27:40.185Z,2.42
2018-08-07T12:30:16.439Z,2.40
2018-08-07T12:32:45.017Z,2.25
2018-08-07T12:35:13.292Z,2.05
2018-08-07T12:37:41.623Z,2.50
2018-08-07T12:40:11.994Z,2.35
2018-08-07T12:42:40.425Z,2.42
2018-08-07T12:45:09.559Z,1.92
2018-08-07T12:47:38.212Z,2.00
2018-08-07T12:50:07.736Z,2.40
2018-08-07T12:52:36.068Z,2.00
2018-08-07T12:55:04.383Z,2.15
2018-08-07T12:57:32.649Z,2.10
2018-08-07T13:00:01.341Z,2.40
2018-08-07T13:02:29.611Z,2.20
2018-08-07T13:04:57.957Z,3.45
2018-08-07T13:07:26.400Z,2.10
2018-08-07T13:09:54.844Z,2.20
2018-08-07T13:12:23.107Z,2.47
2018-08-07T13:14:51.310Z,2.20
2018-08-07T13:17:19.980Z,2.50
2018-08-07T13:19:48.205Z,2.62
2018-08-07T13:22:16.452Z,2.47
2018-08-07T13:24:44.694Z,2.80
2018-08-07T13:27:13.001Z,2.42
2018-08-07T13:29:41.199Z,2.77
2018-08-07T13:32:09.454Z,2.40
2018-08-07T13:34:37.810Z,2.30
2018-08-07T13:37:06.173Z,2.60
2018-08-07T13:39:34.389Z,2.70
2018-08-07T13:42:02.633Z,2.40
2018-08-07T13:44:30.880Z,2.52
2018-08-07T13:46:59.114Z,2.50
2018-08-07T13:49:27.337Z,2.40
2018-08-07T13:51:55.586Z,2.47
2018-08-07T13:54:23.796Z,2.70
2018-08-07T13:56:52.016Z,2.40
2018-08-07T13:59:20.235Z,2.30
2018-08-07T14:01:48.513Z,2.50
2018-08-07T14:04:16.732Z,2.65
2018-08-07T14:06:44.741Z,2.50
2018-08-07T14:09:13.103Z,2.80
2018-08-07T14:11:41.352Z,2.52
2018-08-07T14:14:09.599Z,2.72
2018-08-07T14:16:37.843Z,2.55
2018-08-07T14:19:06.651Z,2.77
2018-08-07T14:21:35.144Z,2.87
2018-08-07T14:24:03.395Z,3.80
2018-08-07T14:26:31.653Z,2.65
2018-08-07T14:28:59.932Z,2.85
2018-08-07T14:31:28.150Z,2.80
2018-08-07T14:33:56.400Z,2.77
2018-08-07T14:36:24.647Z,2.90
2018-08-07T14:38:52.867Z,2.60
2018-08-07T14:41:21.081Z,2.70
2018-08-07T14:43:49.340Z,3.08
2018-08-07T14:46:17.552Z,2.80
2018-08-07T14:48:45.800Z,2.70
2018-08-07T14:51:14.053Z,3.15
2018-08-07T14:53:42.295Z,3.00
2018-08-07T14:56:10.516Z,2.80
2018-08-07T14:58:38.503Z,3.00
2018-08-07T15:01:06.789Z,2.83
2018-08-07T15:03:35.032Z,2.98
2018-08-07T15:06:03.249Z,2.90
2018-08-07T15:08:31.484Z,3.10
2018-08-07T15:10:59.488Z,2.92
2018-08-07T15:13:27.715Z,2.72
2018-08-07T15:15:55.928Z,2.83
2018-08-07T15:18:24.168Z,2.80
2018-08-07T15:20:52.447Z,2.70
2018-08-07T15:23:20.649Z,2.70
2018-08-07T15:25:48.870Z,2.75
2018-08-07T15:28:17.096Z,2.77
2018-08-07T15:30:45.314Z,3.15
2018-08-07T15:33:13.541Z,2.80
2018-08-07T15:35:41.748Z,3.05
2018-08-07T15:38:09.991Z,3.10
2018-08-07T15:40:38.219Z,3.00
2018-08-07T15:43:06.491Z,2.70
2018-08-07T15:45:34.829Z,2.77
2018-08-07T15:48:03.006Z,2.92
2018-08-07T15:50:31.234Z,3.15
2018-08-07T15:52:59.520Z,2.62
2018-08-07T15:55:28.177Z,2.77
2018-08-07T15:57:56.464Z,2.80
2018-08-07T16:00:26.996Z,2.80
2018-08-07T16:02:55.384Z,2.75
2018-08-07T16:05:23.611Z,2.90
2018-08-07T16:07:52.882Z,2.60
2018-08-07T16:10:21.520Z,2.55
2018-08-07T16:12:50.715Z,2.62
2018-08-07T16:15:19.033Z,2.55
2018-08-07T16:17:48.394Z,2.50
2018-08-07T16:20:16.644Z,2.67
2018-08-07T16:22:44.888Z,2.72
2018-08-07T16:25:14.381Z,2.85
2018-08-07T16:27:43.452Z,2.75
2018-08-07T16:30:14.742Z,2.98
2018-08-07T16:32:42.882Z,2.72
2018-08-07T16:35:11.556Z,2.58
2018-08-07T16:37:39.800Z,2.10
2018-08-07T16:40:10.320Z,2.47
2018-08-07T16:42:38.698Z,2.50
2018-08-07T16:45:08.807Z,2.70
2018-08-07T16:47:37.116Z,2.62
2018-08-07T16:50:05.948Z,2.37
2018-08-07T16:52:34.165Z,2.20
2018-08-07T16:55:02.419Z,1.87
2018-08-07T16:57:30.636Z,2.05
2018-08-07T16:59:58.855Z,2.17
2018-08-07T17:02:27.077Z,2.10
2018-08-07T17:04:55.319Z,2.10
2018-08-07T17:07:23.553Z,1.90
2018-08-07T17:09:51.805Z,2.10
2018-08-07T17:12:20.050Z,2.08
2018-08-07T17:14:48.297Z,2.15
2018-08-07T17:17:16.547Z,1.98
2018-08-07T17:19:44.779Z,1.95
2018-08-07T17:22:13.038Z,1.98
2018-08-07T17:24:41.262Z,2.22
2018-08-07T17:27:09.496Z,2.20
2018-08-07T17:29:37.739Z,2.25
2018-08-07T17:32:05.987Z,2.02
2018-08-07T17:34:34.027Z,2.02
2018-08-07T17:37:02.265Z,2.10
2018-08-07T17:39:30.526Z,1.90
2018-08-07T17:41:58.540Z,2.25
2018-08-07T17:44:26.788Z,2.35
2018-08-07T17:46:55.049Z,2.47
2018-08-07T17:49:23.047Z,2.20
2018-08-07T17:51:51.285Z,2.33
2018-08-07T17:54:19.549Z,2.27
2018-08-07T17:56:47.547Z,2.02
2018-08-07T17:59:15.820Z,2.37
2018-08-07T18:01:44.032Z,2.22
2018-08-07T18:04:12.278Z,2.22
2018-08-07T18:06:40.569Z,2.00
2018-08-07T18:09:09.227Z,2.40
2018-08-07T18:11:38.020Z,2.33
2018-08-07T18:14:06.435Z,2.10
2018-08-07T18:16:34.670Z,2.08
2018-08-07T18:19:02.952Z,2.27
2018-08-07T18:21:31.296Z,2.25
2018-08-07T18:23:59.547Z,2.20
2018-08-07T18:26:27.888Z,2.20
2018-08-07T18:28:56.120Z,2.40
2018-08-07T18:31:24.359Z,2.00
2018-08-07T18:33:52.575Z,2.00
2018-08-07T18:36:20.821Z,2.30
2018-08-07T18:38:49.208Z,2.27
2018-08-07T18:41:17.498Z,2.27
2018-08-07T18:43:45.724Z,1.95
2018-08-07T18:46:13.975Z,2.25
2018-08-07T18:48:42.208Z,2.40
2018-08-07T18:51:10.457Z,2.60
2018-08-07T18:53:38.684Z,2.50
2018-08-07T18:56:06.976Z,2.00
2018-08-07T18:58:35.232Z,2.12
2018-08-07T19:01:03.236Z,2.42
2018-08-07T19:03:31.455Z,2.17
2018-08-07T19:05:59.692Z,2.30
2018-08-07T19:08:27.917Z,2.42
2018-08-07T19:10:56.152Z,2.10
2018-08-07T19:13:24.411Z,2.52
2018-08-07T19:15:52.655Z,2.20
2018-08-07T19:18:20.927Z,2.25
2018-08-07T19:20:49.161Z,2.40
2018-08-07T19:23:17.376Z,2.37
2018-08-07T19:25:45.621Z,2.90
2018-08-07T19:28:13.830Z,2.70
2018-08-07T19:30:42.072Z,2.45
2018-08-07T19:33:10.296Z,2.30
2018-08-07T19:35:38.531Z,2.30
2018-08-07T19:38:06.789Z,2.45
2018-08-07T19:40:35.024Z,2.40
2018-08-07T19:43:03.236Z,2.70
2018-08-07T19:45:31.507Z,2.98
2018-08-07T19:47:59.717Z,2.60
2018-08-07T19:50:27.965Z,2.70
2018-08-07T19:52:56.177Z,2.72
2018-08-07T19:55:24.402Z,2.87
2018-08-07T19:57:52.747Z,2.67
2018-08-07T20:00:23.782Z,2.90
2018-08-07T20:02:52.148Z,2.50
2018-08-07T20:05:20.620Z,3.55
2018-08-07T20:07:49.170Z,3.40
2018-08-07T20:10:17.955Z,3.10
2018-08-07T20:12:46.249Z,3.65
2018-08-07T20:15:20.153Z,3.83
2018-08-07T20:17:48.535Z,4.95
2018-08-07T20:20:16.529Z,5.50
2018-08-07T20:22:44.784Z,5.37
2018-08-07T20:25:13.038Z,5.55
2018-08-07T20:27:41.412Z,5.80
2018-08-07T20:30:25.559Z,6.17
2018-08-07T20:32:55.411Z,7.28
2018-08-07T20:35:23.638Z,9.00
2018-08-07T20:37:51.896Z,12.82
2018-08-07T20:40:22.243Z,12.28
2018-08-07T20:42:50.808Z,14.78
2018-08-07T20:45:19.886Z,13.85
2018-08-07T20:47:48.147Z,13.68
2018-08-07T20:50:18.949Z,12.18
2018-08-07T20:52:47.151Z,10.85
2018-08-07T20:55:15.405Z,12.47
2018-08-07T20:57:43.652Z,11.18
2018-08-07T21:00:14.760Z,11.60
2018-08-07T21:02:43.006Z,8.23
2018-08-07T21:05:11.225Z,6.17
2018-08-07T21:07:39.452Z,7.45
2018-08-07T21:10:09.073Z,6.75
2018-08-07T21:12:37.360Z,8.47
2018-08-07T21:15:06.872Z,8.10
2018-08-07T21:17:35.212Z,8.30
2018-08-07T21:20:03.554Z,7.33
2018-08-07T21:22:31.861Z,8.63
2018-08-07T21:25:00.114Z,7.67
2018-08-07T21:27:28.640Z,7.17
2018-08-07T21:29:56.875Z,6.60
2018-08-07T21:32:25.162Z,7.03
2018-08-07T21:34:53.426Z,7.33
2018-08-07T21:37:21.669Z,6.90
2018-08-07T21:39:49.884Z,6.17
2018-08-07T21:42:18.146Z,5.87
2018-08-07T21:44:46.364Z,5.70
2018-08-07T21:47:14.595Z,5.60
2018-08-07T21:49:42.820Z,4.43
2018-08-07T21:52:11.065Z,5.33
2018-08-07T21:54:39.290Z,4.13
2018-08-07T21:57:07.516Z,3.63
2018-08-07T21:59:35.720Z,3.43
2018-08-07T22:02:03.983Z,3.17
2018-08-07T22:04:32.187Z,3.70
2018-08-07T22:07:00.411Z,3.53
2018-08-07T22:09:28.640Z,3.00
2018-08-07T22:11:56.904Z,3.10
2018-08-07T22:14:25.115Z,3.03
2018-08-07T22:16:53.348Z,3.10
2018-08-07T22:19:21.570Z,3.63
2018-08-07T22:21:49.828Z,3.07
2018-08-07T22:24:17.794Z,2.73
2018-08-07T22:26:46.000Z,2.73
2018-08-07T22:29:14.215Z,2.90
2018-08-07T22:31:42.443Z,3.10
2018-08-07T22:34:10.685Z,3.13
2018-08-07T22:36:38.896Z,3.17
2018-08-07T22:39:08.364Z,2.87
2018-08-07T22:41:36.676Z,2.70
2018-08-07T22:44:04.909Z,2.90
2018-08-07T22:46:33.127Z,2.80
2018-08-07T22:49:01.411Z,2.90
2018-08-07T22:51:29.607Z,2.77
2018-08-07T22:53:57.840Z,3.00
2018-08-07T22:56:26.081Z,2.60
2018-08-07T22:58:54.324Z,2.40
2018-08-07T23:01:22.530Z,2.60
2018-08-07T23:03:50.763Z,2.70
2018-08-07T23:06:19.003Z,2.80
2018-08-07T23:08:47.268Z,2.73
2018-08-07T23:11:15.484Z,2.50
2018-08-07T23:13:43.705Z,3.00
2018-08-07T23:16:11.921Z,2.90
2018-08-07T23:18:40.164Z,2.60
2018-08-07T23:21:08.393Z,2.43
2018-08-07T23:23:36.640Z,2.90
2018-08-07T23:26:04.865Z,2.80
2018-08-07T23:28:33.080Z,2.67
2018-08-07T23:31:01.297Z,2.93
2018-08-07T23:33:29.527Z,2.80
2018-08-07T23:35:57.745Z,2.73
2018-08-07T23:38:25.988Z,2.77
2018-08-07T23:40:54.180Z,2.70
2018-08-07T23:43:22.407Z,2.60
2018-08-07T23:45:50.601Z,2.73
2018-08-07T23:48:18.836Z,2.63
2018-08-07T23:50:47.052Z,2.87
2018-08-07T23:53:15.290Z,3.00
2018-08-07T23:55:43.497Z,2.67
2018-08-07T23:58:11.728Z,2.97
